createdAt,value
2022-11-09T00:01:38.024Z,71.00
2022-11-09T00:06:39.511Z,71.20
2022-11-09T00:11:40.887Z,71.69
2022-11-09T00:16:42.347Z,71.42
2022-11-09T00:21:43.694Z,71.45
2022-11-09T00:26:45.070Z,71.52
2022-11-09T00:31:46.464Z,72.44
2022-11-09T00:36:47.840Z,73.13
2022-11-09T00:41:49.189Z,73.42
2022-11-09T00:46:50.948Z,74.10
2022-11-09T00:51:52.395Z,74.63
2022-11-09T00:56:53.789Z,75.59
2022-11-09T01:01:55.186Z,75.96
2022-11-09T01:06:56.691Z,76.61
2022-11-09T01:11:58.157Z,77.04
2022-11-09T01:16:59.518Z,77.21
2022-11-09T01:22:00.862Z,77.84
2022-11-09T01:27:02.218Z,77.37
2022-11-09T01:32:03.896Z,77.25
2022-11-09T01:37:05.478Z,77.53
2022-11-09T01:42:06.834Z,77.89
2022-11-09T01:47:23.230Z,78.08
2022-11-09T01:52:32.081Z,78.47
2022-11-09T01:57:38.385Z,78.02
2022-11-09T02:02:55.283Z,77.89
2022-11-09T02:07:58.289Z,77.41
2022-11-09T02:13:00.454Z,78.07
2022-11-09T02:18:03.787Z,77.83
2022-11-09T02:23:05.818Z,77.83
2022-11-09T02:28:07.976Z,77.98
2022-11-09T02:33:09.354Z,78.12
2022-11-09T02:38:12.678Z,78.36
2022-11-09T02:43:15.459Z,77.79
2022-11-09T02:48:17.018Z,77.57
2022-11-09T02:53:18.682Z,77.55
2022-11-09T02:58:20.253Z,77.60
2022-11-09T03:03:24.411Z,77.75
2022-11-09T03:08:25.821Z,77.65
2022-11-09T03:13:27.219Z,77.59
2022-11-09T03:18:28.545Z,77.76
2022-11-09T03:23:30.155Z,77.75
2022-11-09T03:28:31.522Z,77.56
2022-11-09T03:33:33.005Z,77.38
2022-11-09T03:38:34.628Z,77.57
2022-11-09T03:43:35.992Z,78.16
2022-11-09T03:48:37.386Z,78.94
2022-11-09T03:53:38.738Z,78.87
2022-11-09T03:58:40.118Z,78.87
2022-11-09T04:03:41.569Z,78.62
2022-11-09T04:08:47.006Z,78.72
2022-11-09T04:13:51.417Z,78.92
2022-11-09T04:18:52.818Z,79.12
2022-11-09T04:23:54.152Z,79.00
2022-11-09T04:28:55.507Z,79.18
2022-11-09T04:33:56.895Z,79.46
2022-11-09T04:38:58.266Z,79.23
2022-11-09T04:43:59.617Z,79.60
2022-11-09T04:49:01.134Z,79.65
2022-11-09T04:54:02.496Z,79.37
2022-11-09T04:59:03.857Z,79.54
2022-11-09T05:04:05.249Z,79.67
2022-11-09T05:09:07.622Z,79.46
2022-11-09T05:14:09.003Z,79.37
2022-11-09T05:19:10.329Z,79.42
2022-11-09T05:24:11.847Z,79.38
2022-11-09T05:29:13.542Z,79.59
2022-11-09T05:34:15.135Z,79.76
2022-11-09T05:39:16.485Z,80.04
2022-11-09T05:44:17.864Z,80.18
2022-11-09T05:49:19.203Z,79.85
2022-11-09T05:54:20.533Z,80.11
2022-11-09T05:59:21.937Z,79.97
2022-11-09T06:04:23.294Z,79.93
2022-11-09T06:09:24.704Z,79.95
2022-11-09T06:14:26.099Z,79.86
2022-11-09T06:19:27.469Z,80.11
2022-11-09T06:24:29.032Z,80.30
2022-11-09T06:29:30.387Z,80.00
2022-11-09T06:34:31.789Z,80.27
2022-11-09T06:39:33.127Z,80.38
2022-11-09T06:44:34.470Z,80.61
2022-11-09T06:49:35.885Z,80.61
2022-11-09T06:54:37.232Z,80.50
2022-11-09T06:59:38.584Z,80.54
2022-11-09T07:04:39.931Z,80.63
2022-11-09T07:09:41.286Z,80.73
2022-11-09T07:14:42.659Z,80.48
2022-11-09T07:19:43.988Z,80.51
2022-11-09T07:24:45.453Z,80.64
2022-11-09T07:29:46.810Z,80.79
2022-11-09T07:34:48.227Z,80.39
2022-11-09T07:39:49.594Z,80.32
2022-11-09T07:44:51.297Z,80.35
2022-11-09T07:49:52.665Z,80.04
2022-11-09T07:54:54.029Z,80.23
2022-11-09T07:59:55.454Z,80.34
2022-11-09T08:04:56.857Z,80.37
2022-11-09T08:09:58.461Z,79.92
2022-11-09T08:14:59.799Z,79.89
2022-11-09T08:20:01.177Z,79.91
2022-11-09T08:25:02.596Z,80.14
2022-11-09T08:30:04.299Z,79.87
2022-11-09T08:35:06.190Z,79.86
2022-11-09T08:40:08.926Z,79.82
2022-11-09T08:45:11.303Z,79.99
2022-11-09T08:50:14.498Z,79.89
2022-11-09T08:55:15.962Z,79.95
2022-11-09T09:00:17.664Z,79.81
2022-11-09T09:05:19.855Z,79.56
2022-11-09T09:10:21.306Z,79.73
2022-11-09T09:15:23.149Z,79.58
2022-11-09T09:20:24.524Z,79.54
2022-11-09T09:25:26.875Z,79.74
2022-11-09T09:30:28.324Z,79.56
2022-11-09T09:35:29.754Z,79.39
2022-11-09T09:40:43.549Z,79.38
2022-11-09T09:45:51.704Z,79.13
2022-11-09T09:50:57.364Z,78.97
2022-11-09T09:56:17.042Z,78.75
2022-11-09T10:01:23.925Z,78.55
2022-11-09T10:06:46.299Z,78.50
2022-11-09T10:12:14.469Z,78.38
2022-11-09T10:17:45.478Z,78.28
2022-11-09T10:23:20.931Z,78.04
2022-11-09T10:28:27.197Z,77.96
2022-11-09T10:33:28.953Z,77.93
2022-11-09T10:38:40.085Z,77.64
2022-11-09T10:43:41.450Z,77.38
2022-11-09T10:48:42.888Z,76.99
2022-11-09T10:53:44.315Z,76.81
2022-11-09T10:58:49.083Z,76.25
2022-11-09T11:03:53.171Z,75.97
2022-11-09T11:08:57.338Z,75.82
2022-11-09T11:14:28.983Z,75.55
2022-11-09T11:19:41.346Z,75.20
2022-11-09T11:24:42.713Z,74.32
2022-11-09T11:29:51.952Z,74.61
2022-11-09T11:35:00.392Z,74.52
2022-11-09T11:40:15.872Z,74.18
2022-11-09T11:45:42.058Z,74.06
2022-11-09T11:51:15.984Z,73.92
2022-11-09T11:56:17.296Z,73.37
2022-11-09T12:01:53.852Z,73.59
2022-11-09T12:07:12.864Z,73.17
2022-11-09T12:12:40.870Z,72.85
2022-11-09T12:18:15.309Z,72.61
2022-11-09T12:23:22.813Z,72.32
2022-11-09T12:28:55.878Z,71.85
2022-11-09T12:34:03.154Z,71.73
2022-11-09T12:39:37.603Z,71.22
2022-11-09T12:45:12.184Z,70.49
2022-11-09T12:50:18.183Z,70.07
2022-11-09T12:55:36.333Z,69.80
2022-11-09T13:00:44.260Z,69.65
2022-11-09T13:05:47.529Z,69.58
2022-11-09T13:11:08.472Z,69.48
2022-11-09T13:16:19.088Z,69.01
2022-11-09T13:21:23.214Z,68.74
2022-11-09T13:26:30.734Z,68.37
2022-11-09T13:32:09.688Z,67.92
2022-11-09T13:37:41.802Z,68.26
2022-11-09T13:42:43.271Z,68.07
2022-11-09T13:47:51.956Z,67.82
2022-11-09T13:52:55.546Z,68.00
2022-11-09T13:58:04.723Z,67.77
2022-11-09T14:03:26.478Z,68.23
2022-11-09T14:08:30.638Z,68.75
2022-11-09T14:14:03.280Z,68.69
2022-11-09T14:19:23.018Z,68.24
2022-11-09T14:24:34.519Z,67.94
2022-11-09T14:29:37.916Z,68.28
2022-11-09T14:34:39.258Z,68.21
2022-11-09T14:39:40.947Z,67.92
2022-11-09T14:44:43.996Z,68.51
2022-11-09T14:49:46.090Z,68.85
2022-11-09T14:54:49.347Z,69.80
2022-11-09T14:59:50.939Z,70.30
2022-11-09T15:04:54.399Z,70.00
2022-11-09T15:10:01.684Z,70.26
2022-11-09T15:15:06.664Z,70.56
2022-11-09T15:20:07.964Z,70.83
2022-11-09T15:25:20.834Z,71.18
2022-11-09T15:30:31.681Z,71.49
2022-11-09T15:35:33.052Z,71.51
2022-11-09T15:40:34.385Z,71.64
2022-11-09T15:45:35.749Z,71.43
2022-11-09T15:50:37.333Z,71.85
2022-11-09T15:55:38.758Z,72.00
2022-11-09T16:00:40.247Z,71.87
2022-11-09T16:05:41.649Z,72.13
2022-11-09T16:10:44.369Z,72.25
2022-11-09T16:15:45.758Z,72.18
2022-11-09T16:20:47.377Z,72.33
2022-11-09T16:25:48.800Z,72.42
2022-11-09T16:30:50.210Z,72.37
2022-11-09T16:35:53.681Z,72.61
2022-11-09T16:40:55.095Z,73.00
2022-11-09T16:45:57.155Z,72.70
2022-11-09T16:50:58.705Z,72.74
2022-11-09T16:56:00.113Z,72.83
2022-11-09T17:01:11.314Z,72.82
2022-11-09T17:06:14.099Z,72.72
2022-11-09T17:11:15.571Z,72.81
2022-11-09T17:16:20.208Z,72.74
2022-11-09T17:21:23.213Z,72.95
2022-11-09T17:26:25.781Z,73.11
2022-11-09T17:31:27.178Z,72.96
2022-11-09T17:36:56.827Z,73.02
2022-11-09T17:41:50.408Z,73.41
2022-11-09T17:46:52.055Z,73.65
2022-11-09T17:51:53.553Z,73.60
2022-11-09T17:56:55.129Z,73.88
2022-11-09T18:01:56.521Z,74.16
2022-11-09T18:06:58.033Z,74.25
2022-11-09T18:11:59.466Z,74.09
2022-11-09T18:17:01.566Z,74.31
2022-11-09T18:22:04.877Z,73.68
2022-11-09T18:27:08.007Z,73.71
2022-11-09T18:32:09.448Z,73.83
2022-11-09T18:37:10.852Z,74.24
2022-11-09T18:42:12.394Z,74.17
2022-11-09T18:47:15.049Z,74.27
2022-11-09T18:52:16.437Z,74.07
2022-11-09T18:57:20.021Z,73.97
2022-11-09T19:02:21.641Z,74.16
2022-11-09T19:07:23.007Z,74.08
2022-11-09T19:12:25.055Z,74.12
2022-11-09T19:17:26.463Z,74.03
2022-11-09T19:22:29.099Z,74.34
2022-11-09T19:27:30.468Z,74.43
2022-11-09T19:32:31.909Z,74.43
2022-11-09T19:37:33.288Z,74.09
2022-11-09T19:42:34.653Z,74.61
2022-11-09T19:47:36.010Z,74.43
2022-11-09T19:52:38.765Z,74.04
2022-11-09T19:57:40.134Z,74.24
2022-11-09T20:02:41.488Z,74.22
2022-11-09T20:07:43.470Z,74.28
2022-11-09T20:12:50.542Z,74.16
2022-11-09T20:17:52.257Z,73.97
2022-11-09T20:22:53.605Z,74.13
2022-11-09T20:27:56.097Z,74.16
2022-11-09T20:32:57.477Z,74.25
2022-11-09T20:37:58.980Z,74.21
2022-11-09T20:43:00.316Z,74.38
2022-11-09T20:48:14.792Z,74.33
2022-11-09T20:53:23.009Z,74.23
2022-11-09T20:58:26.729Z,73.83
2022-11-09T21:03:28.149Z,73.72
2022-11-09T21:08:29.579Z,73.72
2022-11-09T21:13:31.645Z,73.33
2022-11-09T21:18:33.384Z,73.02
2022-11-09T21:23:54.784Z,72.68
2022-11-09T21:29:14.812Z,72.91
2022-11-09T21:34:16.220Z,72.88
2022-11-09T21:39:17.585Z,72.49
2022-11-09T21:44:19.038Z,72.49
2022-11-09T21:49:20.381Z,72.73
2022-11-09T21:54:22.640Z,72.54
2022-11-09T21:59:24.462Z,72.89
2022-11-09T22:04:25.853Z,72.55
2022-11-09T22:09:32.414Z,72.25
2022-11-09T22:14:55.713Z,72.12
2022-11-09T22:20:15.717Z,72.10
2022-11-09T22:25:17.181Z,72.32
2022-11-09T22:30:18.680Z,72.06
2022-11-09T22:35:20.086Z,72.16
2022-11-09T22:40:21.815Z,72.43
2022-11-09T22:45:23.155Z,72.21
2022-11-09T22:50:24.546Z,72.34
2022-11-09T22:55:25.926Z,72.46
2022-11-09T23:00:27.322Z,72.45
2022-11-09T23:05:28.950Z,72.72
2022-11-09T23:10:30.397Z,72.88
2022-11-09T23:15:31.846Z,73.29
2022-11-09T23:20:35.700Z,73.53
2022-11-09T23:25:56.417Z,73.48
2022-11-09T23:31:07.192Z,73.66
2022-11-09T23:36:09.217Z,73.85
2022-11-09T23:41:12.479Z,73.54
2022-11-09T23:46:14.580Z,74.24
2022-11-09T23:51:18.387Z,73.73
2022-11-09T23:56:21.150Z,73.96
